ADDS METAR Data INFO
IDs: Format: Raw Decoded Include TAF

Data at: 1901 UTC 23 Apr 2018

KHOE 231855Z AUTO 23007KT 10SM SCT029 SCT039 SCT046 26/20 A2994 RMK AO2
KHOE 231835Z AUTO 21003KT 10SM SCT029 SCT039 BKN048 25/21 A2995 RMK AO2
KHOE 231815Z AUTO 19005KT 10SM SCT038 BKN046 BKN060 25/20 A2995 RMK AO2
KHOE 231755Z AUTO 20005KT 10SM SCT044 SCT065 SCT075 26/21 A2996 RMK AO2
KHOE 231735Z AUTO 00000KT 10SM SCT036 25/21 A2997 RMK AO2
KHOE 231715Z AUTO 25004KT 5SM -RA SCT025 BKN032 BKN038 23/21 A2998 RMK AO2
KHOE 231655Z AUTO 24004KT 10SM SCT024 BKN033 BKN048 25/20 A2998 RMK AO2
KHOE 231635Z AUTO 23005KT 10SM SCT024 BKN031 OVC050 25/20 A2999 RMK AO2
KHOE 231615Z AUTO 24005KT 10SM SCT019 BKN030 OVC065 24/20 A3000 RMK AO2 LTG DSNT SE
KHOE 231555Z AUTO 23007KT 10SM SCT016 BKN030 OVC060 25/20 A3000 RMK AO2
KHOE 231535Z AUTO 18005KT 10SM SCT018 BKN023 OVC028 23/20 A3001 RMK AO2
KHOE 231515Z AUTO 20004KT 10SM BKN017 OVC026 23/20 A3001 RMK AO2
KHOE 231455Z AUTO 20003KT 10SM BKN018 BKN022 OVC050 22/20 A3001 RMK AO2
KHOE 231435Z AUTO 18006KT 10SM SCT014 BKN022 OVC050 22/20 A3001 RMK AO2
KHOE 231415Z AUTO 21006KT 10SM SCT013 BKN020 OVC050 22/20 A3001 RMK AO2
KHOE 231355Z AUTO 20004KT 10SM SCT012 BKN018 OVC050 22/20 A3001 RMK AO2
KHOE 231335Z AUTO 20004KT 10SM BKN009 BKN016 OVC075 21/20 A3001 RMK AO2
KHOE 231315Z AUTO 19004KT 10SM SCT009 BKN013 OVC070 22/20 A3001 RMK AO2
KHOE 231255Z AUTO 18004KT 10SM SCT009 BKN015 OVC090 21/20 A3001 RMK AO2
KHOE 231235Z AUTO 17005KT 10SM SCT007 BKN015 OVC020 21/20 A3001 RMK AO2
KHOE 231215Z AUTO 15004KT 10SM OVC010 20/20 A3000 RMK AO2
KHOE 231155Z AUTO 16004KT 10SM BKN010 BKN016 OVC120 20/20 A3000 RMK AO2
KHOE 231135Z AUTO 15004KT 10SM SCT005 BKN010 OVC120 20/20 A2999 RMK AO2
KHOE 231115Z AUTO 15003KT 10SM SCT004 SCT007 OVC017 20/20 A2999 RMK AO2
KHOE 231055Z AUTO 16003KT 10SM SCT007 BKN019 BKN029 20/20 A2998 RMK AO2
KHOE 231035Z AUTO 16005KT 10SM SCT008 SCT019 BKN043 20/20 A2998 RMK AO2
KHOE 231015Z AUTO 17004KT 10SM SCT006 BKN010 BKN028 20/20 A2999 RMK AO2
KHOE 230955Z AUTO 17006KT 10SM BKN008 OVC013 20/20 A2998 RMK AO2
KHOE 230935Z AUTO 15005KT 10SM BKN008 OVC012 20/20 A2999 RMK AO2
KHOE 230915Z AUTO 14003KT 10SM SCT010 BKN014 OVC037 20/20 A2998 RMK AO2
KHOE 230855Z AUTO 13003KT 10SM SCT018 BKN037 OVC090 20/20 A2998 RMK AO2
KHOE 230835Z AUTO 00000KT 10SM -DZ SCT029 BKN080 OVC095 20/20 A2998 RMK AO2
KHOE 230815Z AUTO 22005G16KT 5SM -RA SCT007 BKN020 OVC075 20/20 A2998 RMK AO2
KHOE 230755Z AUTO 12005KT 3SM +RA SCT006 BKN010 OVC023 19/19 A2996 RMK AO2
KHOE 230735Z AUTO 11006KT 7SM RA BKN004 BKN013 OVC021 19/19 A2997 RMK AO2
KHOE 230715Z AUTO 11006KT 5SM +RA OVC004 19/18 A2998 RMK AO2
KHOE 230655Z AUTO 11005KT 7SM RA OVC004 18/18 A2999 RMK AO2
KHOE 230635Z AUTO 11003KT 10SM -RA OVC006 18/18 A3000 RMK AO2
KHOE 230615Z AUTO 12006KT 10SM -RA OVC006 18/18 A3002 RMK AO2
KHOE 230555Z AUTO 13005KT 10SM RA BKN006 OVC011 18/18 A3002 RMK AO2
KHOE 230535Z AUTO 10006KT 7SM RA OVC010 18/18 A3003 RMK AO2
KHOE 230515Z AUTO 11006KT 10SM -RA OVC012 18/18 A3004 RMK AO2
KHOE 230455Z AUTO 11006KT 10SM -RA OVC012 19/18 A3005 RMK AO2
KHOE 230435Z AUTO 12004KT 10SM -RA OVC012 19/17 A3006 RMK AO2
KHOE 230415Z AUTO 11009KT 080V150 10SM BKN010 OVC015 19/17 A3006 RMK AO2
KHOE 230355Z AUTO 12008G14KT 10SM BKN012 OVC020 19/17 A3007 RMK AO2
KHOE 230335Z AUTO 10009G16KT 070V130 10SM BKN012 OVC022 19/17 A3006 RMK AO2
KHOE 230315Z AUTO 12009G18KT 080V150 10SM BKN012 BKN024 BKN036 19/17 A3007 RMK AO2
KHOE 230255Z AUTO 12010G20KT 070V130 10SM BKN014 BKN024 OVC110 19/17 A3006 RMK AO2
KHOE 230235Z AUTO 11009G17KT 10SM BKN014 OVC024 19/17 A3006 RMK AO2
KHOE 230215Z AUTO 11009G19KT 10SM BKN016 OVC030 20/17 A3008 RMK AO2
KHOE 230155Z AUTO 10009G18KT 070V130 10SM SCT016 BKN026 OVC039 20/17 A3008 RMK AO2
KHOE 230135Z AUTO 10014G20KT 060V120 10SM SCT016 OVC029 20/17 A3008 RMK AO2
KHOE 230115Z AUTO 11011G19KT 10SM BKN016 BKN031 OVC040 20/17 A3008 RMK AO2
KHOE 230055Z AUTO 11009G16KT 10SM SCT018 SCT028 BKN048 20/17 A3007 RMK AO2
KHOE 230035Z AUTO 10010G16KT 080V140 10SM SCT018 SCT036 SCT048 20/16 A3007 RMK AO2
KHOE 230015Z AUTO 12011G17KT 10SM SCT020 SCT032 BKN120 20/16 A3006 RMK AO2
KHOE 222355Z AUTO 12012G21KT 10SM BKN030 OVC037 21/16 A3006 RMK AO2 LTG DSNT S
KHOE 222335Z AUTO 11010G15KT 10SM OVC030 21/16 A3008 RMK AO2
KHOE 222315Z AUTO 10010G15KT 10SM BKN030 BKN042 OVC050 21/16 A3006 RMK AO2
KHOE 222255Z AUTO 11010G14KT 080V150 10SM OVC030 21/16 A3007 RMK AO2
KHOE 222235Z AUTO 11011G16KT 080V140 10SM OVC030 21/16 A3007 RMK AO2 LTG DSNT W
KHOE 222215Z AUTO 11011G15KT 10SM BKN032 OVC042 22/16 A3006 RMK AO2
KHOE 222155Z AUTO 11008G16KT 080V140 10SM BKN034 OVC043 22/16 A3006 RMK AO2
KHOE 222135Z AUTO 11009G17KT 070V150 10SM SCT032 OVC043 22/16 A3005 RMK AO2
KHOE 222115Z AUTO 11010G17KT 080V140 10SM OVC032 22/16 A3005 RMK AO2
KHOE 222055Z AUTO 11011G15KT 10SM OVC032 22/16 A3007 RMK AO2
KHOE 222035Z AUTO 12011G18KT 10SM BKN031 BKN037 BKN060 23/16 A3007 RMK AO2
KHOE 222015Z AUTO 10007G17KT 080V150 10SM BKN035 OVC060 23/16 A3008 RMK AO2
KHOE 221955Z AUTO 13010G17KT 080V150 10SM BKN033 OVC060 23/16 A3009 RMK AO2
KHOE 221935Z AUTO 12008G14KT 10SM BKN035 OVC060 22/16 A3010 RMK AO2
KHOE 221915Z AUTO 12011G17KT 10SM BKN035 BKN043 OVC060 23/16 A3011 RMK AO2
KHOE 221855Z AUTO 12011G15KT 10SM BKN035 BKN041 OVC060 22/16 A3013 RMK AO2 LTG DSNT SE
KHOE 221835Z AUTO 12010G17KT 10SM BKN033 OVC041 22/16 A3015 RMK AO2
KHOE 221815Z AUTO 11010G18KT 10SM BKN033 OVC040 22/16 A3016 RMK AO2
KHOE 221755Z AUTO 12011G14KT 090V150 10SM BKN033 BKN039 OVC047 23/16 A3015 RMK AO2
KHOE 221735Z AUTO 13013G17KT 10SM OVC033 22/16 A3016 RMK AO2
KHOE 221715Z AUTO 12011G15KT 10SM OVC033 22/16 A3016 RMK AO2
KHOE 221655Z AUTO 13010KT 10SM BKN033 OVC045 22/16 A3017 RMK AO2
KHOE 221635Z AUTO 12011G16KT 090V150 10SM BKN031 OVC044 22/16 A3018 RMK AO2
KHOE 221615Z AUTO 11004KT 10SM BKN031 OVC046 21/16 A3018 RMK AO2
KHOE 221555Z AUTO 11009KT 10SM SCT031 BKN046 OVC055 21/16 A3019 RMK AO2
KHOE 221535Z AUTO 12009KT 10SM BKN048 OVC065 21/15 A3020 RMK AO2
KHOE 221515Z AUTO 13008KT 100V160 10SM OVC048 20/16 A3021 RMK AO2
KHOE 221455Z AUTO 12005KT 10SM BKN050 OVC070 20/16 A3021 RMK AO2
KHOE 221435Z AUTO 12006G15KT 10SM BKN047 BKN060 OVC070 20/15 A3021 RMK AO2
KHOE 221415Z AUTO 12007KT 080V140 10SM BKN050 OVC055 20/15 A3021 RMK AO2
KHOE 221355Z AUTO 12006KT 10SM SCT044 OVC055 20/16 A3020 RMK AO2
KHOE 221335Z AUTO 11004KT 10SM BKN044 OVC055 18/16 A3021 RMK AO2
KHOE 221315Z AUTO 11009KT 10SM SCT048 BKN060 OVC070 18/15 A3021 RMK AO2
KHOE 221255Z AUTO 10006KT 10SM SCT050 BKN055 OVC065 17/15 A3020 RMK AO2
KHOE 221235Z AUTO 09007KT 060V120 10SM BKN050 OVC060 17/15 A3021 RMK AO2
KHOE 221215Z AUTO 08004KT 10SM BKN050 OVC065 17/15 A3021 RMK AO2
KHOE 221155Z AUTO 09006KT 10SM RA BKN055 OVC065 17/15 A3021 RMK AO2
KHOE 221135Z AUTO 09005KT 10SM BKN060 OVC065 16/15 A3020 RMK AO2
KHOE 221115Z AUTO 08006KT 10SM OVC060 16/15 A3020 RMK AO2
KHOE 221055Z AUTO 07004KT 10SM BKN060 OVC075 16/15 A3019 RMK AO2
KHOE 221035Z AUTO 06005KT 10SM SCT060 BKN075 OVC085 16/15 A3018 RMK AO2
KHOE 221015Z AUTO 07003KT 10SM -RA BKN065 BKN095 BKN120 16/15 A3018 RMK AO2
KHOE 220955Z AUTO 08004KT 10SM -RA OVC065 16/15 A3018 RMK AO2
KHOE 220935Z AUTO 07003KT 10SM BKN070 OVC085 16/15 A3018 RMK AO2
KHOE 220915Z AUTO 00000KT 10SM SCT085 BKN110 16/15 A3019 RMK AO2
KHOE 220855Z AUTO 00000KT 10SM SCT075 BKN085 BKN110 16/15 A3018 RMK AO2
KHOE 220835Z AUTO 10004KT 10SM SCT075 SCT085 BKN110 16/15 A3018 RMK AO2
KHOE 220815Z AUTO 00000KT 10SM SCT075 SCT090 16/15 A3019 RMK AO2
KHOE 220755Z AUTO 08004KT 10SM SCT075 SCT090 BKN110 16/15 A3018 RMK AO2
KHOE 220735Z AUTO 08005KT 10SM SCT085 BKN110 16/15 A3018 RMK AO2
KHOE 220715Z AUTO 08004KT 10SM BKN080 BKN110 16/15 A3019 RMK AO2